createdAt,value
2018-09-03T00:00:30.974Z,1015.19
2018-09-03T00:01:30.967Z,1015.21
2018-09-03T00:02:30.956Z,1015.19
2018-09-03T00:03:30.968Z,1015.16
2018-09-03T00:04:30.935Z,1015.18
2018-09-03T00:05:30.942Z,1015.17
2018-09-03T00:06:30.925Z,1015.13
2018-09-03T00:07:30.895Z,1015.07
2018-09-03T00:08:30.883Z,1015.10
2018-09-03T00:09:30.894Z,1015.04
2018-09-03T00:10:30.865Z,1015.04
2018-09-03T00:11:30.855Z,1015.05
2018-09-03T00:12:30.868Z,1015.03
2018-09-03T00:13:30.829Z,1014.99
2018-09-03T00:14:30.818Z,1015.00
2018-09-03T00:15:30.805Z,1015.00
2018-09-03T00:16:30.796Z,1014.97
2018-09-03T00:17:30.804Z,1014.98
2018-09-03T00:18:30.828Z,1014.97
2018-09-03T00:19:30.764Z,1014.94
2018-09-03T00:20:30.804Z,1014.89
2018-09-03T00:21:30.739Z,1014.87
2018-09-03T00:22:30.729Z,1014.86
2018-09-03T00:23:30.757Z,1014.83
2018-09-03T00:24:30.724Z,1014.81
2018-09-03T00:25:30.700Z,1014.76
2018-09-03T00:26:30.698Z,1014.75
2018-09-03T00:27:30.675Z,1014.73
2018-09-03T00:28:30.659Z,1014.75
2018-09-03T00:29:30.678Z,1014.71
2018-09-03T00:30:30.662Z,1014.69
2018-09-03T00:31:30.639Z,1014.71
2018-09-03T00:32:30.658Z,1014.69
2018-09-03T00:33:30.608Z,1014.68
2018-09-03T00:34:30.599Z,1014.63
2018-09-03T00:35:30.582Z,1014.65
2018-09-03T00:36:30.592Z,1014.66
2018-09-03T00:37:30.564Z,1014.65
2018-09-03T00:38:30.577Z,1014.66
2018-09-03T00:39:30.538Z,1014.70
2018-09-03T00:40:30.527Z,1014.63
2018-09-03T00:41:30.518Z,1014.64
2018-09-03T00:42:30.523Z,1014.63
2018-09-03T00:43:30.495Z,1014.61
2018-09-03T00:44:30.485Z,1014.59
2018-09-03T00:45:30.511Z,1014.60
2018-09-03T00:46:30.467Z,1014.57
2018-09-03T00:47:30.482Z,1014.54
2018-09-03T00:48:30.452Z,1014.53
2018-09-03T00:49:30.432Z,1014.52
2018-09-03T00:50:30.447Z,1014.52
2018-09-03T00:51:30.402Z,1014.51
2018-09-03T00:52:30.391Z,1014.55
2018-09-03T00:53:30.386Z,1014.50
2018-09-03T00:54:30.422Z,1014.54
2018-09-03T00:55:30.362Z,1014.55
2018-09-03T00:56:30.353Z,1014.52
2018-09-03T00:57:30.339Z,1014.56
2018-09-03T00:58:30.327Z,1014.55
2018-09-03T00:59:30.319Z,1014.53
2018-09-03T01:00:30.353Z,1014.53
2018-09-03T01:01:30.301Z,1014.52
2018-09-03T01:02:30.284Z,1014.49
2018-09-03T01:03:30.308Z,1014.49
2018-09-03T01:04:30.265Z,1014.49
2018-09-03T01:05:30.255Z,1014.46
2018-09-03T01:06:30.292Z,1014.44
2018-09-03T01:07:30.224Z,1014.46
2018-09-03T01:08:30.214Z,1014.44
2018-09-03T01:09:30.210Z,1014.45
2018-09-03T01:10:30.193Z,1014.45
2018-09-03T01:11:30.227Z,1014.44
2018-09-03T01:12:39.305Z,1014.47
2018-09-03T01:13:30.158Z,1014.46
2018-09-03T01:14:30.150Z,1014.42
2018-09-03T01:15:30.173Z,1014.42
2018-09-03T01:16:30.124Z,1014.42
2018-09-03T01:17:30.129Z,1014.45
2018-09-03T01:18:30.125Z,1014.45
2018-09-03T01:19:30.093Z,1014.45
2018-09-03T01:20:30.081Z,1014.46
2018-09-03T01:21:30.075Z,1014.48
2018-09-03T01:22:30.062Z,1014.43
2018-09-03T01:23:30.044Z,1014.43
2018-09-03T01:24:30.074Z,1014.44
2018-09-03T01:25:30.027Z,1014.40
2018-09-03T01:26:30.013Z,1014.41
2018-09-03T01:27:30.013Z,1014.36
2018-09-03T01:28:29.986Z,1014.34
2018-09-03T01:29:30.036Z,1014.32
2018-09-03T01:30:29.970Z,1014.34
2018-09-03T01:31:29.954Z,1014.31
2018-09-03T01:32:29.948Z,1014.31
2018-09-03T01:33:29.932Z,1014.30
2018-09-03T01:34:29.927Z,1014.32
2018-09-03T01:35:29.932Z,1014.28
2018-09-03T01:36:29.934Z,1014.23
2018-09-03T01:37:29.888Z,1014.27
2018-09-03T01:38:29.885Z,1014.27
2018-09-03T01:39:29.871Z,1014.25
2018-09-03T01:40:29.853Z,1014.27
2018-09-03T01:41:29.858Z,1014.29
2018-09-03T01:42:29.860Z,1014.25
2018-09-03T01:43:29.833Z,1014.25
2018-09-03T01:44:29.860Z,1014.31
2018-09-03T01:45:29.827Z,1014.27
2018-09-03T01:46:29.790Z,1014.29
2018-09-03T01:47:29.825Z,1014.26
2018-09-03T01:48:29.764Z,1014.28
2018-09-03T01:49:29.755Z,1014.25
2018-09-03T01:50:29.798Z,1014.28
2018-09-03T01:51:29.739Z,1014.30
2018-09-03T01:52:29.719Z,1014.32
2018-09-03T01:53:38.829Z,1014.25
2018-09-03T01:54:29.694Z,1014.28
2018-09-03T01:55:29.692Z,1014.27
2018-09-03T01:56:29.717Z,1014.27
2018-09-03T01:57:29.689Z,1014.24
2018-09-03T01:58:29.690Z,1014.22
2018-09-03T01:59:29.642Z,1014.24
2018-09-03T02:00:29.634Z,1014.24
2018-09-03T02:01:29.656Z,1014.26
2018-09-03T02:02:29.627Z,1014.25
2018-09-03T02:03:29.600Z,1014.25
2018-09-03T02:04:29.631Z,1014.25
2018-09-03T02:05:29.573Z,1014.25
2018-09-03T02:06:29.577Z,1014.23
2018-09-03T02:07:29.553Z,1014.24
2018-09-03T02:08:29.539Z,1014.23
2018-09-03T02:09:29.527Z,1014.25
2018-09-03T02:10:29.567Z,1014.21
2018-09-03T02:11:29.507Z,1014.27
2018-09-03T02:12:29.494Z,1014.24
2018-09-03T02:13:29.487Z,1014.28
2018-09-03T02:14:29.470Z,1014.28
2018-09-03T02:15:29.459Z,1014.28
2018-09-03T02:16:29.464Z,1014.33
2018-09-03T02:17:29.449Z,1014.33
2018-09-03T02:18:29.465Z,1014.31
2018-09-03T02:19:29.418Z,1014.30
2018-09-03T02:20:29.436Z,1014.32
2018-09-03T02:21:29.424Z,1014.32
2018-09-03T02:22:29.459Z,1014.30
2018-09-03T02:23:29.398Z,1014.33
2018-09-03T02:24:29.357Z,1014.34
2018-09-03T02:25:29.350Z,1014.34
2018-09-03T02:26:29.372Z,1014.34
2018-09-03T02:27:29.326Z,1014.35
2018-09-03T02:28:29.340Z,1014.38
2018-09-03T02:29:29.304Z,1014.34
2018-09-03T02:30:29.293Z,1014.39
2018-09-03T02:31:29.279Z,1014.35
2018-09-03T02:32:29.292Z,1014.37
2018-09-03T02:33:29.280Z,1014.36
2018-09-03T02:34:29.260Z,1014.30
2018-09-03T02:35:29.233Z,1014.34
2018-09-03T02:36:29.229Z,1014.32
2018-09-03T02:37:29.219Z,1014.29
2018-09-03T02:38:29.207Z,1014.30
2018-09-03T02:39:29.208Z,1014.32
2018-09-03T02:40:29.197Z,1014.31
2018-09-03T02:41:29.187Z,1014.29
2018-09-03T02:42:29.168Z,1014.27
2018-09-03T02:43:29.156Z,1014.24
2018-09-03T02:44:29.143Z,1014.20
2018-09-03T02:45:29.119Z,1014.20
2018-09-03T02:46:29.134Z,1014.18
2018-09-03T02:47:29.107Z,1014.15
2018-09-03T02:48:29.111Z,1014.13
2018-09-03T02:49:29.079Z,1014.16
2018-09-03T02:50:29.069Z,1014.13
2018-09-03T02:51:29.057Z,1014.16
2018-09-03T02:52:29.072Z,1014.15
2018-09-03T02:53:29.037Z,1014.14
2018-09-03T02:54:29.047Z,1014.18
2018-09-03T02:55:29.009Z,1014.15
2018-09-03T02:56:29.009Z,1014.12
2018-09-03T02:57:29.013Z,1014.14
2018-09-03T02:58:28.981Z,1014.17
2018-09-03T02:59:28.968Z,1014.18
2018-09-03T03:00:28.956Z,1014.18
2018-09-03T03:01:28.943Z,1014.22
2018-09-03T03:02:28.958Z,1014.19
2018-09-03T03:03:28.949Z,1014.22
2018-09-03T03:04:28.920Z,1014.18
2018-09-03T03:05:28.900Z,1014.22
2018-09-03T03:06:28.885Z,1014.21
2018-09-03T03:07:28.890Z,1014.18
2018-09-03T03:08:28.893Z,1014.23
2018-09-03T03:09:28.884Z,1014.29
2018-09-03T03:10:28.841Z,1014.30
2018-09-03T03:11:28.829Z,1014.33
2018-09-03T03:12:28.820Z,1014.33
2018-09-03T03:13:28.810Z,1014.34
2018-09-03T03:14:28.833Z,1014.40
2018-09-03T03:15:28.818Z,1014.39
2018-09-03T03:16:28.779Z,1014.39
2018-09-03T03:17:28.769Z,1014.39
2018-09-03T03:18:28.751Z,1014.42
2018-09-03T03:19:28.742Z,1014.38
2018-09-03T03:20:28.737Z,1014.45
2018-09-03T03:21:28.781Z,1014.35
2018-09-03T03:22:28.711Z,1014.36
2018-09-03T03:23:28.704Z,1014.32
2018-09-03T03:24:28.684Z,1014.29
2018-09-03T03:25:28.674Z,1014.30
2018-09-03T03:26:28.662Z,1014.29
2018-09-03T03:27:28.662Z,1014.27
2018-09-03T03:28:28.674Z,1014.30
2018-09-03T03:29:28.635Z,1014.25
2018-09-03T03:30:28.619Z,1014.23
2018-09-03T03:31:28.610Z,1014.19
2018-09-03T03:32:28.612Z,1014.13
2018-09-03T03:33:28.601Z,1014.07
2018-09-03T03:34:28.574Z,1014.04
2018-09-03T03:35:28.562Z,1013.98
2018-09-03T03:36:28.576Z,1013.91
2018-09-03T03:37:28.550Z,1013.87
2018-09-03T03:38:28.550Z,1013.82
2018-09-03T03:39:28.524Z,1013.80
2018-09-03T03:40:28.543Z,1013.76
2018-09-03T03:41:28.492Z,1013.67
2018-09-03T03:42:28.484Z,1013.67
2018-09-03T03:43:28.479Z,1013.71
2018-09-03T03:44:28.474Z,1013.67
2018-09-03T03:45:28.496Z,1013.68
2018-09-03T03:46:28.471Z,1013.68
2018-09-03T03:47:28.430Z,1013.71
2018-09-03T03:48:28.475Z,1013.71
2018-09-03T03:49:28.407Z,1013.67
2018-09-03T03:50:28.405Z,1013.62
2018-09-03T03:51:28.414Z,1013.61
2018-09-03T03:52:28.387Z,1013.58
2018-09-03T03:53:28.402Z,1013.56
2018-09-03T03:54:28.361Z,1013.57
2018-09-03T03:55:28.351Z,1013.58
2018-09-03T03:56:28.355Z,1013.68
2018-09-03T03:57:28.318Z,1013.70
2018-09-03T03:58:28.304Z,1013.77
2018-09-03T03:59:28.299Z,1013.75
2018-09-03T04:00:28.318Z,1013.79
2018-09-03T04:01:28.278Z,1013.77
2018-09-03T04:02:28.312Z,1013.79
2018-09-03T04:03:28.251Z,1013.74
2018-09-03T04:04:28.262Z,1013.77
2018-09-03T04:05:28.233Z,1013.80
2018-09-03T04:06:28.215Z,1013.76
2018-09-03T04:07:28.205Z,1013.78
2018-09-03T04:08:28.244Z,1013.80
2018-09-03T04:09:28.181Z,1013.78
2018-09-03T04:10:28.170Z,1013.77
2018-09-03T04:11:28.162Z,1013.77
2018-09-03T04:12:28.151Z,1013.77
2018-09-03T04:13:28.139Z,1013.74
2018-09-03T04:14:28.163Z,1013.73
2018-09-03T04:15:28.115Z,1013.71
2018-09-03T04:16:28.106Z,1013.69
2018-09-03T04:17:28.095Z,1013.70
2018-09-03T04:18:28.113Z,1013.69
2018-09-03T04:19:28.105Z,1013.68
2018-09-03T04:20:28.078Z,1013.68
2018-09-03T04:21:28.050Z,1013.64
2018-09-03T04:22:28.042Z,1013.62
2018-09-03T04:23:28.262Z,1013.65
2018-09-03T04:24:28.018Z,1013.63
2018-09-03T04:25:28.001Z,1013.63
2018-09-03T04:26:28.005Z,1013.58
2018-09-03T04:27:27.980Z,1013.58
2018-09-03T04:28:28.008Z,1013.53
2018-09-03T04:29:27.958Z,1013.54
2018-09-03T04:30:27.959Z,1013.51
2018-09-03T04:31:27.969Z,1013.53
2018-09-03T04:32:27.989Z,1013.56
2018-09-03T04:33:27.916Z,1013.56
2018-09-03T04:34:27.904Z,1013.50
2018-09-03T04:35:27.894Z,1013.49
2018-09-03T04:36:27.880Z,1013.47
2018-09-03T04:37:27.894Z,1013.46
2018-09-03T04:38:27.875Z,1013.42
2018-09-03T04:39:27.847Z,1013.46
2018-09-03T04:40:27.836Z,1013.47
2018-09-03T04:41:27.827Z,1013.48
2018-09-03T04:42:27.849Z,1013.47
2018-09-03T04:43:27.824Z,1013.45
2018-09-03T04:44:28.132Z,1013.44
2018-09-03T04:45:27.794Z,1013.51
2018-09-03T04:46:27.768Z,1013.50
2018-09-03T04:47:27.782Z,1013.58
2018-09-03T04:48:27.746Z,1013.55
2018-09-03T04:49:27.759Z,1013.58
2018-09-03T04:50:27.724Z,1013.57
2018-09-03T04:51:27.717Z,1013.56
2018-09-03T04:52:27.702Z,1013.54
2018-09-03T04:53:27.691Z,1013.49
2018-09-03T04:54:27.771Z,1013.51
2018-09-03T04:55:27.687Z,1013.49
2018-09-03T04:56:27.665Z,1013.45
2018-09-03T04:57:27.645Z,1013.38
2018-09-03T04:58:27.661Z,1013.35
2018-09-03T04:59:27.628Z,1013.35
2018-09-03T05:00:27.610Z,1013.40
2018-09-03T05:01:27.639Z,1013.42
2018-09-03T05:02:27.591Z,1013.44
2018-09-03T05:03:27.583Z,1013.42
2018-09-03T05:04:27.575Z,1013.42
2018-09-03T05:05:27.649Z,1013.43
2018-09-03T05:06:27.573Z,1013.42
2018-09-03T05:07:27.537Z,1013.41
2018-09-03T05:08:27.524Z,1013.46
2018-09-03T05:09:27.513Z,1013.51
2018-09-03T05:10:27.498Z,1013.47
2018-09-03T05:11:27.489Z,1013.48
2018-09-03T05:12:27.533Z,1013.49
2018-09-03T05:13:27.467Z,1013.50
2018-09-03T05:14:27.459Z,1013.52
2018-09-03T05:15:35.351Z,1013.53
2018-09-03T05:16:27.434Z,1013.55
2018-09-03T05:17:27.425Z,1013.52
2018-09-03T05:18:27.475Z,1013.52
2018-09-03T05:19:27.407Z,1013.52
2018-09-03T05:20:27.392Z,1013.54
2018-09-03T05:21:27.379Z,1013.47
2018-09-03T05:22:27.382Z,1013.48
2018-09-03T05:23:27.364Z,1013.53
2018-09-03T05:24:27.399Z,1013.51
2018-09-03T05:25:27.335Z,1013.55
2018-09-03T05:26:27.321Z,1013.51
2018-09-03T05:27:27.349Z,1013.55
2018-09-03T05:28:27.304Z,1013.52
2018-09-03T05:29:27.292Z,1013.54
2018-09-03T05:30:27.291Z,1013.55
2018-09-03T05:31:27.268Z,1013.52
2018-09-03T05:32:27.262Z,1013.55
2018-09-03T05:33:27.246Z,1013.58
2018-09-03T05:34:27.236Z,1013.59
2018-09-03T05:35:27.285Z,1013.58
2018-09-03T05:36:27.239Z,1013.58
2018-09-03T05:37:27.201Z,1013.55
2018-09-03T05:38:27.196Z,1013.56
2018-09-03T05:39:27.179Z,1013.60
2018-09-03T05:40:27.165Z,1013.60
2018-09-03T05:41:27.216Z,1013.60
2018-09-03T05:42:27.149Z,1013.56
2018-09-03T05:43:27.189Z,1013.55
2018-09-03T05:44:27.123Z,1013.50
2018-09-03T05:45:27.116Z,1013.47
2018-09-03T05:46:27.138Z,1013.39
2018-09-03T05:47:27.121Z,1013.37
2018-09-03T05:48:27.079Z,1013.38
2018-09-03T05:49:27.064Z,1013.37
2018-09-03T05:50:27.188Z,1013.36
2018-09-03T05:51:27.043Z,1013.37
2018-09-03T05:52:27.075Z,1013.37
2018-09-03T05:53:27.045Z,1013.40
2018-09-03T05:54:27.008Z,1013.40
2018-09-03T05:55:26.996Z,1013.39
2018-09-03T05:56:26.985Z,1013.43
2018-09-03T05:57:26.974Z,1013.41
2018-09-03T05:58:26.975Z,1013.37
2018-09-03T05:59:26.968Z,1013.42
2018-09-03T06:00:26.940Z,1013.34
2018-09-03T06:01:26.929Z,1013.36
2018-09-03T06:02:26.920Z,1013.38
2018-09-03T06:03:26.908Z,1013.36
2018-09-03T06:04:26.912Z,1013.36
2018-09-03T06:05:26.902Z,1013.39
2018-09-03T06:06:26.875Z,1013.37
2018-09-03T06:07:26.865Z,1013.32
2018-09-03T06:08:26.856Z,1013.30
2018-09-03T06:09:26.849Z,1013.29
2018-09-03T06:10:26.860Z,1013.30
2018-09-03T06:11:26.822Z,1013.35
2018-09-03T06:12:26.824Z,1013.33
2018-09-03T06:13:26.796Z,1013.32
2018-09-03T06:14:26.785Z,1013.32
2018-09-03T06:15:26.772Z,1013.28
2018-09-03T06:16:26.777Z,1013.24
2018-09-03T06:17:26.795Z,1013.26
2018-09-03T06:18:26.742Z,1013.28
2018-09-03T06:19:26.734Z,1013.28
2018-09-03T06:20:26.719Z,1013.36
2018-09-03T06:21:26.704Z,1013.42
2018-09-03T06:22:26.705Z,1013.42
2018-09-03T06:23:26.736Z,1013.43
2018-09-03T06:24:26.673Z,1013.45
2018-09-03T06:25:26.665Z,1013.42
2018-09-03T06:26:26.650Z,1013.41
2018-09-03T06:27:26.655Z,1013.45
2018-09-03T06:28:26.627Z,1013.45
2018-09-03T06:29:26.631Z,1013.44
2018-09-03T06:30:26.609Z,1013.41
2018-09-03T06:31:26.592Z,1013.44
2018-09-03T06:32:26.582Z,1013.42
2018-09-03T06:33:26.573Z,1013.42
2018-09-03T06:34:26.562Z,1013.38
2018-09-03T06:35:26.570Z,1013.37
2018-09-03T06:36:26.536Z,1013.27
2018-09-03T06:37:26.524Z,1013.29
2018-09-03T06:38:26.515Z,1013.28
2018-09-03T06:39:26.554Z,1013.27
2018-09-03T06:40:26.510Z,1013.27
2018-09-03T06:41:26.481Z,1013.28
2018-09-03T06:42:26.487Z,1013.33
2018-09-03T06:43:26.481Z,1013.34
2018-09-03T06:44:26.477Z,1013.32
2018-09-03T06:45:26.435Z,1013.34
2018-09-03T06:46:26.456Z,1013.33
2018-09-03T06:47:26.415Z,1013.38
2018-09-03T06:48:26.430Z,1013.35
2018-09-03T06:49:26.397Z,1013.29
2018-09-03T06:50:26.384Z,1013.29
2018-09-03T06:51:26.376Z,1013.32
2018-09-03T06:52:26.409Z,1013.34
2018-09-03T06:53:26.405Z,1013.31
2018-09-03T06:54:26.340Z,1013.27
2018-09-03T06:55:26.321Z,1013.25
2018-09-03T06:56:26.335Z,1013.30
2018-09-03T06:57:26.298Z,1013.28
2018-09-03T06:58:26.304Z,1013.30
2018-09-03T06:59:26.322Z,1013.28
2018-09-03T07:00:26.286Z,1013.33
2018-09-03T07:01:26.260Z,1013.27
2018-09-03T07:02:26.251Z,1013.30
2018-09-03T07:03:26.233Z,1013.24
2018-09-03T07:04:26.250Z,1013.29
2018-09-03T07:05:26.233Z,1013.34
2018-09-03T07:06:26.200Z,1013.33
2018-09-03T07:07:26.211Z,1013.34
2018-09-03T07:08:26.185Z,1013.34
2018-09-03T07:09:26.189Z,1013.35
2018-09-03T07:10:26.170Z,1013.38
2018-09-03T07:11:26.149Z,1013.36
2018-09-03T07:12:26.149Z,1013.35
2018-09-03T07:13:26.121Z,1013.35
2018-09-03T07:14:26.124Z,1013.32
2018-09-03T07:15:26.098Z,1013.31
2018-09-03T07:16:26.106Z,1013.33
2018-09-03T07:17:26.107Z,1013.32
2018-09-03T07:18:26.061Z,1013.31
2018-09-03T07:19:26.056Z,1013.29
2018-09-03T07:20:26.068Z,1013.31
2018-09-03T07:21:26.033Z,1013.29
2018-09-03T07:22:26.041Z,1013.26
2018-09-03T07:23:26.018Z,1013.23
2018-09-03T07:24:25.999Z,1013.22
2018-09-03T07:25:25.989Z,1013.23
2018-09-03T07:26:25.980Z,1013.23
2018-09-03T07:27:25.962Z,1013.21
2018-09-03T07:28:25.972Z,1013.17
2018-09-03T07:29:25.982Z,1013.18
2018-09-03T07:30:25.932Z,1013.20
2018-09-03T07:31:25.919Z,1013.19
2018-09-03T07:32:25.926Z,1013.15
2018-09-03T07:33:25.896Z,1013.14
2018-09-03T07:34:25.887Z,1013.15
2018-09-03T07:35:25.919Z,1013.13
2018-09-03T07:36:25.886Z,1013.17
2018-09-03T07:37:25.870Z,1013.20
2018-09-03T07:38:25.853Z,1013.18
2018-09-03T07:39:25.839Z,1013.25
2018-09-03T07:40:25.827Z,1013.20
2018-09-03T07:41:25.836Z,1013.21
2018-09-03T07:42:25.797Z,1013.22
2018-09-03T07:43:25.787Z,1013.23
2018-09-03T07:44:25.773Z,1013.26
2018-09-03T07:45:25.761Z,1013.30
2018-09-03T07:46:25.763Z,1013.30
2018-09-03T07:47:25.822Z,1013.25
2018-09-03T07:48:25.731Z,1013.29
2018-09-03T07:49:25.757Z,1013.28
2018-09-03T07:50:25.718Z,1013.28
2018-09-03T07:51:25.699Z,1013.25
2018-09-03T07:52:25.684Z,1013.21
2018-09-03T07:53:25.673Z,1013.23
2018-09-03T07:54:25.706Z,1013.27
2018-09-03T07:55:25.666Z,1013.22
2018-09-03T07:56:25.639Z,1013.21
2018-09-03T07:57:25.627Z,1013.22
2018-09-03T07:58:25.629Z,1013.22
2018-09-03T07:59:25.618Z,1013.21
2018-09-03T08:00:25.622Z,1013.20
2018-09-03T08:01:25.614Z,1013.24
2018-09-03T08:02:25.642Z,1013.27
2018-09-03T08:03:25.561Z,1013.29
2018-09-03T08:04:25.553Z,1013.33
2018-09-03T08:05:25.542Z,1013.29
2018-09-03T08:06:25.544Z,1013.31
2018-09-03T08:07:25.582Z,1013.28
2018-09-03T08:08:25.579Z,1013.35
2018-09-03T08:09:25.499Z,1013.30
2018-09-03T08:10:25.487Z,1013.36
2018-09-03T08:11:25.491Z,1013.24
2018-09-03T08:12:25.480Z,1013.23
2018-09-03T08:13:25.496Z,1013.24
2018-09-03T08:14:25.454Z,1013.14
2018-09-03T08:15:25.440Z,1013.15
2018-09-03T08:16:25.419Z,1013.10
2018-09-03T08:17:25.424Z,1013.10
2018-09-03T08:18:25.412Z,1013.07
2018-09-03T08:19:25.417Z,1013.05
2018-09-03T08:20:25.410Z,1013.04
2018-09-03T08:21:25.390Z,1013.05
2018-09-03T08:22:25.390Z,1013.06
2018-09-03T08:23:25.343Z,1013.08
2018-09-03T08:24:25.331Z,1013.06
2018-09-03T08:25:25.319Z,1013.02
2018-09-03T08:26:25.332Z,1013.02
2018-09-03T08:27:25.299Z,1013.03
2018-09-03T08:28:25.282Z,1012.98
2018-09-03T08:29:25.280Z,1013.03
2018-09-03T08:30:25.269Z,1013.02
2018-09-03T08:31:25.252Z,1012.99
2018-09-03T08:32:25.255Z,1012.98
2018-09-03T08:33:25.233Z,1012.99
2018-09-03T08:34:25.233Z,1012.96
2018-09-03T08:35:25.211Z,1012.94
2018-09-03T08:36:25.209Z,1012.92
2018-09-03T08:37:25.228Z,1012.92
2018-09-03T08:38:25.188Z,1012.92
2018-09-03T08:39:25.178Z,1012.89
2018-09-03T08:40:25.169Z,1012.92
2018-09-03T08:41:25.140Z,1012.95
2018-09-03T08:42:25.132Z,1012.96
2018-09-03T08:43:25.140Z,1012.94
2018-09-03T08:44:25.142Z,1012.93
2018-09-03T08:45:25.123Z,1012.95
2018-09-03T08:46:25.090Z,1012.92
2018-09-03T08:47:25.079Z,1012.90
2018-09-03T08:48:25.059Z,1012.92
2018-09-03T08:49:25.056Z,1012.93
2018-09-03T08:50:25.162Z,1012.90
2018-09-03T08:51:25.032Z,1012.90
2018-09-03T08:52:25.038Z,1012.87
2018-09-03T08:53:25.007Z,1012.83
2018-09-03T08:54:25.034Z,1012.89
2018-09-03T08:55:24.993Z,1012.89
2018-09-03T08:56:24.990Z,1012.82
2018-09-03T08:57:24.963Z,1012.87
2018-09-03T08:58:24.960Z,1012.87
2018-09-03T08:59:24.938Z,1012.83
2018-09-03T09:00:24.940Z,1012.84
2018-09-03T09:01:24.935Z,1012.81
2018-09-03T09:02:24.938Z,1012.78
2018-09-03T09:03:24.918Z,1012.76
2018-09-03T09:04:24.882Z,1012.79
2018-09-03T09:05:24.870Z,1012.73
2018-09-03T09:06:24.857Z,1012.76
2018-09-03T09:07:24.875Z,1012.78
2018-09-03T09:08:24.858Z,1012.76
2018-09-03T09:09:24.834Z,1012.75
2018-09-03T09:10:24.811Z,1012.74
2018-09-03T09:11:24.804Z,1012.72
2018-09-03T09:12:24.831Z,1012.72
2018-09-03T09:13:24.788Z,1012.77
2018-09-03T09:14:24.791Z,1012.79
2018-09-03T09:15:24.765Z,1012.74
2018-09-03T09:16:24.764Z,1012.78
2018-09-03T09:17:24.753Z,1012.76
2018-09-03T09:18:24.737Z,1012.76
2018-09-03T09:19:24.734Z,1012.77
2018-09-03T09:20:24.733Z,1012.75
2018-09-03T09:21:24.704Z,1012.75
2018-09-03T09:22:24.687Z,1012.67
2018-09-03T09:23:24.666Z,1012.70
2018-09-03T09:24:24.683Z,1012.70
2018-09-03T09:25:24.643Z,1012.74
2018-09-03T09:26:24.630Z,1012.73
2018-09-03T09:27:24.655Z,1012.76
2018-09-03T09:28:24.613Z,1012.76
2018-09-03T09:29:24.611Z,1012.73
2018-09-03T09:30:24.594Z,1012.75
2018-09-03T09:31:24.608Z,1012.72
2018-09-03T09:32:24.566Z,1012.74
2018-09-03T09:33:24.580Z,1012.73
2018-09-03T09:34:24.559Z,1012.69
2018-09-03T09:35:24.546Z,1012.68
2018-09-03T09:36:24.520Z,1012.69
2018-09-03T09:37:24.530Z,1012.64
2018-09-03T09:38:24.501Z,1012.64
2018-09-03T09:39:24.538Z,1012.66
2018-09-03T09:40:24.478Z,1012.68
2018-09-03T09:41:24.479Z,1012.66
2018-09-03T09:42:24.465Z,1012.70
2018-09-03T09:43:24.493Z,1012.65
2018-09-03T09:44:24.430Z,1012.70
2018-09-03T09:45:24.437Z,1012.65
2018-09-03T09:46:24.409Z,1012.68
2018-09-03T09:47:24.405Z,1012.70
2018-09-03T09:48:24.402Z,1012.66
2018-09-03T09:49:24.378Z,1012.67
2018-09-03T09:50:24.399Z,1012.68
2018-09-03T09:51:24.378Z,1012.69
2018-09-03T09:52:24.354Z,1012.68
2018-09-03T09:53:24.332Z,1012.71
2018-09-03T09:54:24.329Z,1012.67
2018-09-03T09:55:24.343Z,1012.72
2018-09-03T09:56:24.304Z,1012.73
2018-09-03T09:57:24.279Z,1012.68
2018-09-03T09:58:24.289Z,1012.71
2018-09-03T09:59:24.277Z,1012.70
2018-09-03T10:00:24.248Z,1012.67
2018-09-03T10:01:24.255Z,1012.70
2018-09-03T10:02:24.227Z,1012.73
2018-09-03T10:03:24.231Z,1012.66
2018-09-03T10:04:24.314Z,1012.61
2018-09-03T10:05:24.207Z,1012.65
2018-09-03T10:06:24.188Z,1012.62
2018-09-03T10:07:24.197Z,1012.59
2018-09-03T10:08:24.165Z,1012.60
2018-09-03T10:09:24.154Z,1012.56
2018-09-03T10:10:24.170Z,1012.55
2018-09-03T10:11:24.146Z,1012.53
2018-09-03T10:12:24.158Z,1012.48
2018-09-03T10:13:24.112Z,1012.49
2018-09-03T10:14:24.090Z,1012.45
2018-09-03T10:15:24.094Z,1012.49
2018-09-03T10:16:24.083Z,1012.45
2018-09-03T10:17:24.056Z,1012.41
2018-09-03T10:18:24.080Z,1012.40
2018-09-03T10:19:24.035Z,1012.40
2018-09-03T10:20:24.021Z,1012.41
2018-09-03T10:21:24.046Z,1012.40
2018-09-03T10:22:24.001Z,1012.39
2018-09-03T10:23:24.043Z,1012.43
2018-09-03T10:24:23.992Z,1012.40
2018-09-03T10:25:23.973Z,1012.39
2018-09-03T10:26:23.990Z,1012.39
2018-09-03T10:27:23.959Z,1012.34
2018-09-03T10:28:23.933Z,1012.31
2018-09-03T10:29:23.923Z,1012.34
2018-09-03T10:30:23.969Z,1012.41
2018-09-03T10:31:23.899Z,1012.37
2018-09-03T10:32:23.912Z,1012.41
2018-09-03T10:33:23.877Z,1012.33
2018-09-03T10:34:23.866Z,1012.27
2018-09-03T10:35:23.896Z,1012.25
2018-09-03T10:36:23.881Z,1012.24
2018-09-03T10:37:23.861Z,1012.23
2018-09-03T10:38:23.828Z,1012.22
2018-09-03T10:39:23.842Z,1012.23
2018-09-03T10:40:23.815Z,1012.19
2018-09-03T10:41:23.790Z,1012.22
2018-09-03T10:42:23.784Z,1012.16
2018-09-03T10:43:23.816Z,1012.17
2018-09-03T10:44:23.751Z,1012.17
2018-09-03T10:45:23.751Z,1012.14
2018-09-03T10:46:23.731Z,1012.15
2018-09-03T10:47:23.849Z,1012.13
2018-09-03T10:48:23.712Z,1012.02
2018-09-03T10:49:23.694Z,1012.01
2018-09-03T10:50:23.690Z,1011.98
2018-09-03T10:51:23.715Z,1011.97
2018-09-03T10:52:23.679Z,1011.98
2018-09-03T10:53:23.730Z,1011.92
2018-09-03T10:54:23.670Z,1011.92
2018-09-03T10:55:23.630Z,1011.92
2018-09-03T10:56:23.645Z,1011.92
2018-09-03T10:57:23.641Z,1011.79
2018-09-03T10:58:23.614Z,1011.79
2018-09-03T10:59:23.597Z,1011.79
2018-09-03T11:00:23.578Z,1011.73
2018-09-03T11:01:23.599Z,1011.80
2018-09-03T11:02:23.576Z,1011.82
2018-09-03T11:03:23.549Z,1011.85
2018-09-03T11:04:23.550Z,1011.87
2018-09-03T11:05:23.600Z,1011.81
2018-09-03T11:06:23.511Z,1011.75
2018-09-03T11:07:23.496Z,1011.73
2018-09-03T11:08:23.520Z,1011.73
2018-09-03T11:09:23.526Z,1011.71
2018-09-03T11:10:23.463Z,1011.75
2018-09-03T11:11:23.500Z,1011.73
2018-09-03T11:12:23.450Z,1011.74
2018-09-03T11:13:23.439Z,1011.74
2018-09-03T11:14:23.501Z,1011.75
2018-09-03T11:15:23.414Z,1011.73
2018-09-03T11:16:23.405Z,1011.74
2018-09-03T11:17:23.446Z,1011.71
2018-09-03T11:18:23.379Z,1011.64
2018-09-03T11:19:23.393Z,1011.68
2018-09-03T11:20:23.358Z,1011.68
2018-09-03T11:21:23.502Z,1011.70
2018-09-03T11:22:23.418Z,1011.67
2018-09-03T11:23:23.336Z,1011.70
2018-09-03T11:24:23.313Z,1011.67
2018-09-03T11:25:23.317Z,1011.66
2018-09-03T11:26:23.305Z,1011.68
2018-09-03T11:27:23.287Z,1011.68
2018-09-03T11:28:23.282Z,1011.65
2018-09-03T11:29:23.298Z,1011.71
2018-09-03T11:30:23.242Z,1011.69
2018-09-03T11:31:23.269Z,1011.66
2018-09-03T11:32:23.218Z,1011.65
2018-09-03T11:33:23.264Z,1011.63
2018-09-03T11:34:23.254Z,1011.57
2018-09-03T11:35:23.205Z,1011.53
2018-09-03T11:36:23.179Z,1011.57
2018-09-03T11:37:23.175Z,1011.58
2018-09-03T11:38:23.186Z,1011.58
2018-09-03T11:39:23.163Z,1011.58
2018-09-03T11:40:23.158Z,1011.59
2018-09-03T11:41:23.148Z,1011.60
2018-09-03T11:42:23.114Z,1011.59
2018-09-03T11:43:23.104Z,1011.56
2018-09-03T11:44:23.095Z,1011.52
2018-09-03T11:45:23.116Z,1011.52
2018-09-03T11:46:23.077Z,1011.50
2018-09-03T11:47:23.114Z,1011.54
2018-09-03T11:48:23.040Z,1011.53
2018-09-03T11:49:23.040Z,1011.52
2018-09-03T11:50:23.036Z,1011.51
2018-09-03T11:51:23.008Z,1011.45
2018-09-03T11:52:23.023Z,1011.47
2018-09-03T11:53:22.990Z,1011.47
2018-09-03T11:54:23.032Z,1011.48
2018-09-03T11:55:23.024Z,1011.43
2018-09-03T11:56:23.006Z,1011.41
2018-09-03T11:57:22.948Z,1011.41
2018-09-03T11:58:22.945Z,1011.41
2018-09-03T11:59:22.920Z,1011.42
2018-09-03T12:00:22.976Z,1011.42
2018-09-03T12:01:22.933Z,1011.43
2018-09-03T12:02:22.916Z,1011.43
2018-09-03T12:03:22.883Z,1011.44
2018-09-03T12:04:22.884Z,1011.41
2018-09-03T12:05:22.855Z,1011.41